Time;durP1;ratioP1;P1;durP2;ratioP2;P2;SDS_P1;SDS_P2;PMS_P1;PMS_P2;Temp;Humidity;BMP_temperature;BMP_pressure;BME280_temperature;BME280_humidity;BME280_pressure;Samples;Min_cycle;Max_cycle;Signal;HPM_P1;HPM_P2
2022/06/25 00:01:30;;;;;;;19.73;5.65;;;;;;;18.71;56.54;99817.97;5003683;28;20505;-67
2022/06/25 00:03:56;;;;;;;14.77;5.50;;;;;;;18.67;56.43;99819.78;5005241;28;20057;-71
2022/06/25 00:06:22;;;;;;;14.27;5.50;;;;;;;18.65;56.62;99822.06;4993195;28;20051;-71
2022/06/25 00:08:50;;;;;;;15.27;5.45;;;;;;;18.50;56.72;99799.28;4984604;28;20085;-68
2022/06/25 00:14:06;;;;;;;22.90;5.40;;;;;;;18.63;56.65;99833.47;4986495;28;20445;-67
2022/06/25 00:16:34;;;;;;;14.02;5.43;;;;;;;18.59;56.87;99834.47;4987908;28;20514;-68
2022/06/25 00:18:59;;;;;;;;;;;;;;;18.53;57.39;99829.09;4986017;28;20498;-68
2022/06/25 00:21:26;;;;;;;17.77;6.13;;;;;;;18.51;57.31;99836.91;4986734;28;20031;-67
2022/06/25 00:23:52;;;;;;;13.52;5.80;;;;;;;18.51;57.52;99841.66;4986864;28;20050;-69
2022/06/25 00:26:19;;;;;;;22.83;5.87;;;;;;;18.46;57.30;99839.03;4989385;28;20430;-68
2022/06/25 00:28:46;;;;;;;14.38;5.30;;;;;;;18.42;57.54;99836.91;4986052;28;20413;-67
2022/06/25 00:31:12;;;;;;;18.60;5.47;;;;;;;18.40;57.39;99841.97;5006369;28;20137;-67
2022/06/25 00:33:38;;;;;;;15.95;5.45;;;;;;;18.36;57.53;99842.94;5004711;28;20541;-69
2022/06/25 00:36:04;;;;;;;101.95;59.40;;;;;;;18.35;57.65;99850.44;5004531;28;20132;-67
2022/06/25 00:38:30;;;;;;;18.98;6.47;;;;;;;18.34;57.56;99859.91;5003132;28;20069;-67
2022/06/25 00:40:56;;;;;;;17.45;5.70;;;;;;;18.30;57.31;99852.56;5005413;28;20064;-67
2022/06/25 00:43:23;;;;;;;17.33;6.18;;;;;;;18.27;58.02;99859.56;5005467;28;20532;-69
2022/06/25 00:45:49;;;;;;;19.02;5.68;;;;;;;18.27;58.05;99863.16;5004011;28;20160;-68
2022/06/25 00:48:16;;;;;;;18.42;6.38;;;;;;;18.27;58.25;99859.56;5002909;28;20557;-67
2022/06/25 00:50:42;;;;;;;31.23;6.95;;;;;;;18.25;58.55;99861.84;5004332;28;20064;-68
2022/06/25 00:53:10;;;;;;;20.38;6.35;;;;;;;18.22;58.66;99868.03;5003473;28;20049;-69
2022/06/25 00:55:38;;;;;;;21.30;6.30;;;;;;;18.20;58.76;99864.78;5005576;28;20124;-71
2022/06/25 00:58:10;;;;;;;25.20;6.93;;;;;;;18.16;58.93;99867.38;5003433;28;20078;-70
2022/06/25 01:00:38;;;;;;;24.45;6.32;;;;;;;18.17;58.92;99870.94;5005393;28;20045;-69
2022/06/25 01:03:05;;;;;;;21.10;6.80;;;;;;;18.18;59.25;99873.38;5003830;28;20063;-70
2022/06/25 01:05:31;;;;;;;19.35;5.97;;;;;;;18.19;58.83;99888.06;5003999;28;20592;-70
2022/06/25 01:07:57;;;;;;;25.77;6.47;;;;;;;18.21;59.22;99877.47;5003222;28;20076;-71
2022/06/25 01:10:23;;;;;;;19.58;6.20;;;;;;;18.22;58.85;99882.66;5004388;28;20885;-69
2022/06/25 01:12:49;;;;;;;28.55;6.95;;;;;;;18.22;59.04;99882.66;5005491;28;20144;-70
2022/06/25 01:15:17;;;;;;;26.05;7.07;;;;;;;18.08;59.43;99868.16;5003951;28;20574;-72
2022/06/25 01:17:47;;;;;;;27.48;6.38;;;;;;;18.21;59.54;99892.09;5000875;28;20046;-72
2022/06/25 01:20:15;;;;;;;21.00;6.47;;;;;;;18.22;59.47;99892.94;5003014;28;20100;-71
2022/06/25 01:22:43;;;;;;;29.27;7.07;;;;;;;18.24;59.46;99890.66;5003778;28;20058;-70
2022/06/25 01:25:10;;;;;;;19.98;6.28;;;;;;;18.24;59.54;99891.44;5004514;28;20081;-70
2022/06/25 01:27:37;;;;;;;17.15;6.07;;;;;;;18.28;59.56;99897.16;4983762;28;20076;-71
2022/06/25 01:30:05;;;;;;;25.65;6.43;;;;;;;18.30;59.40;99900.41;4985001;28;20046;-67
2022/06/25 01:32:32;;;;;;;28.65;7.15;;;;;;;18.33;59.33;99905.28;5017748;28;20074;-66
2022/06/25 01:34:58;;;;;;;22.73;6.23;;;;;;;18.37;59.16;99908.22;5021437;28;20125;-67
2022/06/25 01:37:24;;;;;;;20.65;6.43;;;;;;;18.41;59.24;99909.19;5006397;28;20045;-68
2022/06/25 01:39:53;;;;;;;23.20;6.45;;;;;;;18.45;59.10;99912.13;5005362;28;20513;-71
2022/06/25 01:45:06;;;;;;;16.95;6.45;;;;;;;18.50;59.01;99907.25;5005329;28;20501;-69
2022/06/25 01:47:32;;;;;;;23.20;7.47;;;;;;;18.54;58.92;99904.66;5005338;28;20337;-70
2022/06/25 01:49:58;;;;;;;19.33;6.93;;;;;;;18.53;58.62;99908.56;5000625;28;20663;-71
2022/06/25 01:52:24;;;;;;;20.20;6.80;;;;;;;18.52;58.83;99904.19;4985711;28;20046;-70
2022/06/25 01:54:51;;;;;;;17.05;7.00;;;;;;;18.56;58.57;99911.47;4984339;28;20054;-70
2022/06/25 01:57:18;;;;;;;18.85;6.85;;;;;;;18.61;58.60;99912.47;4981019;28;20050;-70
2022/06/25 01:59:46;;;;;;;26.75;7.13;;;;;;;18.64;58.65;99909.84;4984862;28;20097;-68
2022/06/25 02:02:14;;;;;;;25.35;6.45;;;;;;;18.69;58.46;99917.19;5000877;28;20051;-71
2022/06/25 02:04:41;;;;;;;33.75;6.78;;;;;;;18.73;58.14;99911.81;4967646;28;20078;-72
2022/06/25 02:07:07;;;;;;;26.47;6.23;;;;;;;18.77;58.03;99913.59;4984919;28;20160;-70
2022/06/25 02:09:36;;;;;;;21.60;6.57;;;;;;;18.78;57.88;99912.47;4985270;28;20050;-71
2022/06/25 02:12:02;;;;;;;16.07;6.00;;;;;;;18.82;57.97;99910.66;4984277;28;20552;-70
2022/06/25 02:14:30;;;;;;;20.95;6.38;;;;;;;18.89;57.79;99914.88;4980880;28;20125;-70
2022/06/25 02:16:57;;;;;;;22.65;6.90;;;;;;;18.92;58.12;99915.03;4981329;28;20587;-69
2022/06/25 02:19:23;;;;;;;24.52;7.30;;;;;;;18.94;58.09;99920.25;4984611;28;20058;-70
2022/06/25 02:21:50;;;;;;;31.67;6.93;;;;;;;18.96;58.02;99920.75;4983904;28;20526;-70
2022/06/25 02:24:16;;;;;;;33.60;7.28;;;;;;;18.99;57.72;99923.69;5003178;28;20064;-70
2022/06/25 02:26:42;;;;;;;31.08;7.00;;;;;;;19.05;58.01;99917.97;4985572;28;20425;-71
2022/06/25 02:29:08;;;;;;;23.52;7.32;;;;;;;19.08;57.60;99914.53;5003414;28;20120;-70
2022/06/25 02:31:36;;;;;;;25.58;7.47;;;;;;;19.09;57.42;99911.44;4988152;28;20052;-69
2022/06/25 02:34:04;;;;;;;23.77;7.18;;;;;;;19.11;57.79;99909.16;4982928;28;20045;-67
2022/06/25 02:36:31;;;;;;;19.80;6.82;;;;;;;19.10;57.38;99902.00;5000331;28;20161;-67
2022/06/25 02:38:57;;;;;;;26.10;6.65;;;;;;;19.23;57.46;99914.00;4985616;28;20585;-68
2022/06/25 02:41:25;;;;;;;26.10;6.85;;;;;;;19.27;57.42;99928.03;5001730;28;20108;-67
2022/06/25 02:43:52;;;;;;;23.33;6.57;;;;;;;19.30;56.64;99924.59;4999062;28;20100;-69
2022/06/25 02:46:33;;;;;;;21.55;6.97;;;;;;;19.36;56.79;99925.22;5002022;28;20049;-68
2022/06/25 02:49:02;;;;;;;21.23;7.18;;;;;;;19.40;56.65;99926.19;5001616;28;20149;-67
2022/06/25 02:51:28;;;;;;;22.05;6.80;;;;;;;19.46;56.46;99921.28;5004575;28;20045;-67
2022/06/25 02:53:55;;;;;;;17.23;6.80;;;;;;;19.49;56.43;99924.22;5002281;28;20140;-67
2022/06/25 02:59:08;;;;;;;25.75;7.55;;;;;;;19.55;56.10;99924.84;4982379;28;20065;-68
2022/06/25 03:01:40;;;;;;;26.30;7.22;;;;;;;19.60;56.10;99927.41;4999652;28;20042;-68
2022/06/25 03:04:08;;;;;;;24.13;7.57;;;;;;;19.67;56.18;99930.50;4999517;28;20054;-68
2022/06/25 03:06:34;;;;;;;34.80;7.20;;;;;;;19.73;55.84;99933.06;4999621;28;20042;-68
2022/06/25 03:09:01;;;;;;;23.80;6.43;;;;;;;19.77;55.49;99934.03;5002362;28;20058;-68
2022/06/25 03:11:27;;;;;;;27.13;6.20;;;;;;;19.82;55.42;99940.19;5001998;28;20084;-69
2022/06/25 03:13:53;;;;;;;16.77;6.45;;;;;;;19.88;55.16;99943.59;5002314;28;20477;-69
2022/06/25 03:16:21;;;;;;;26.17;6.43;;;;;;;19.95;54.81;99946.69;4985230;28;20513;-68
2022/06/25 03:18:50;;;;;;;26.67;6.50;;;;;;;20.02;54.59;99945.38;4986465;28;20064;-66
2022/06/25 03:21:36;;;;;;;20.60;6.32;;;;;;;20.06;54.45;99949.09;5001854;28;20056;-67
2022/06/25 03:24:05;;;;;;;19.17;6.25;;;;;;;20.11;54.30;99946.94;5001066;28;20107;-67
2022/06/25 03:26:34;;;;;;;19.30;5.82;;;;;;;20.17;54.51;99946.72;4998134;28;20064;-68
2022/06/25 03:29:02;;;;;;;19.48;5.88;;;;;;;20.22;54.20;99943.78;4986875;28;20070;-69
2022/06/25 03:31:30;;;;;;;22.30;5.82;;;;;;;20.33;53.99;99955.28;5019034;28;20135;-70
2022/06/25 03:34:00;;;;;;;19.13;6.00;;;;;;;20.38;53.90;99955.91;4986237;28;20373;-71
2022/06/25 03:36:46;;;;;;;20.27;5.78;;;;;;;20.46;53.67;99961.72;4982912;28;20057;-71
2022/06/25 03:39:12;;;;;;;15.10;5.88;;;;;;;20.53;53.43;99962.00;4966099;28;20425;-69
2022/06/25 03:41:39;;;;;;;;;;;;;;;20.59;53.53;99962.59;4982322;28;20046;-69
2022/06/25 03:44:20;;;;;;;16.50;5.28;;;;;;;20.63;52.95;99958.81;4998259;28;19932;-71
2022/06/25 03:46:48;;;;;;;26.83;5.72;;;;;;;20.68;53.12;99966.94;4981501;28;20129;-71
2022/06/25 03:49:15;;;;;;;16.50;5.38;;;;;;;20.75;52.93;99965.59;4998389;28;20053;-70
2022/06/25 03:51:58;;;;;;;19.85;5.97;;;;;;;20.83;52.46;99973.88;5000537;28;20386;-71
2022/06/25 03:54:24;;;;;;;21.30;6.03;;;;;;;20.89;52.46;99979.22;4985283;28;20065;-71
2022/06/25 03:56:50;;;;;;;14.30;5.57;;;;;;;20.94;52.20;99967.91;4993178;28;20046;-70
2022/06/25 03:59:17;;;;;;;18.95;5.70;;;;;;;21.03;51.85;99978.94;4998069;28;20050;-71
2022/06/25 04:01:45;;;;;;;23.00;5.50;;;;;;;21.09;51.74;99978.38;4965564;28;20105;-70
2022/06/25 04:04:12;;;;;;;21.00;5.70;;;;;;;21.16;51.57;99979.78;4981985;28;20473;-71
2022/06/25 04:06:38;;;;;;;13.23;5.95;;;;;;;21.18;51.75;99977.47;4999765;28;20502;-70
2022/06/25 04:09:06;;;;;;;17.80;6.00;;;;;;;21.24;51.52;99981.69;4998477;28;20046;-70
2022/06/25 04:11:32;;;;;;;20.13;5.60;;;;;;;21.28;51.13;99984.56;4980835;28;20050;-71
2022/06/25 04:14:00;;;;;;;17.35;5.32;;;;;;;21.31;51.31;99989.44;4982491;28;20597;-70
2022/06/25 04:16:26;;;;;;;21.05;5.93;;;;;;;21.37;51.00;99990.84;4998178;28;20469;-68
2022/06/25 04:18:54;;;;;;;16.13;5.50;;;;;;;21.40;50.67;99990.16;4965207;28;20092;-69
2022/06/25 04:21:24;;;;;;;22.83;5.57;;;;;;;21.42;50.80;99996.19;4981453;28;20056;-68
2022/06/25 04:23:51;;;;;;;14.13;5.30;;;;;;;21.43;50.81;99986.69;4982058;28;20430;-68
2022/06/25 04:26:20;;;;;;;19.80;5.65;;;;;;;21.47;50.73;99989.59;4981382;28;20051;-68
2022/06/25 04:29:04;;;;;;;26.38;5.55;;;;;;;21.53;50.30;99989.03;4980868;28;20094;-68
2022/06/25 04:31:48;;;;;;;17.70;5.70;;;;;;;21.58;50.59;99984.41;4991526;28;20058;-70
2022/06/25 04:34:27;;;;;;;15.73;5.20;;;;;;;21.63;50.65;99993.34;4975096;28;20132;-68
2022/06/25 04:36:54;;;;;;;;;;;;;;;21.70;50.13;99994.75;4998367;28;20089;-69
2022/06/25 04:39:24;;;;;;;18.40;5.40;;;;;;;21.75;50.15;99994.56;4987694;28;20438;-68
2022/06/25 04:41:52;;;;;;;14.90;5.28;;;;;;;21.85;49.88;99994.06;4987076;28;20042;-69
2022/06/25 04:44:21;;;;;;;13.00;5.13;;;;;;;21.93;49.75;99995.94;4998238;28;20042;-69
2022/06/25 04:46:47;;;;;;;18.27;5.28;;;;;;;22.03;49.30;99993.88;5002095;28;20112;-68
2022/06/25 04:49:15;;;;;;;14.07;4.75;;;;;;;21.96;49.03;99978.53;5000993;28;20054;-67
2022/06/25 04:51:43;;;;;;;14.60;4.38;;;;;;;22.11;49.02;99998.50;5000859;28;20137;-67
2022/06/25 04:54:10;;;;;;;15.23;5.55;;;;;;;22.13;49.04;99998.16;5003627;28;20066;-68
2022/06/25 04:56:39;;;;;;;14.40;5.47;;;;;;;22.22;48.75;100004.41;4987245;28;20057;-68
2022/06/25 04:59:07;;;;;;;13.63;5.18;;;;;;;22.28;48.77;100004.97;5005804;28;20052;-71
2022/06/25 05:01:33;;;;;;;13.30;5.18;;;;;;;22.33;48.66;100000.00;5003892;28;20053;-69
2022/06/25 05:03:59;;;;;;;22.65;5.03;;;;;;;22.36;48.51;100004.84;4988332;28;20049;-71
2022/06/25 05:06:25;;;;;;;11.52;4.80;;;;;;;22.41;47.95;100011.38;5003959;28;20071;-72
2022/06/25 05:08:52;;;;;;;10.40;4.88;;;;;;;22.45;47.65;100015.88;5019876;28;20145;-71
2022/06/25 05:11:19;;;;;;;20.42;5.57;;;;;;;22.50;47.58;100020.41;4966635;28;20042;-69
2022/06/25 05:13:45;;;;;;;14.47;4.90;;;;;;;22.54;47.21;100015.75;5004887;28;20697;-72
2022/06/25 05:16:13;;;;;;;15.63;4.75;;;;;;;22.54;46.66;100014.97;4984429;28;20812;-70
2022/06/25 05:18:39;;;;;;;13.02;5.78;;;;;;;22.56;46.80;100018.22;4954536;28;20054;-71
2022/06/25 05:21:05;;;;;;;23.85;5.85;;;;;;;22.63;46.82;100021.19;5002723;28;20096;-70
2022/06/25 05:23:31;;;;;;;15.10;5.27;;;;;;;22.66;46.83;100021.31;4641164;28;9999822;-70
2022/06/25 05:25:57;;;;;;;12.27;5.38;;;;;;;22.72;46.23;100018.31;4997870;28;20081;-72
2022/06/25 05:28:24;;;;;;;19.53;6.07;;;;;;;22.80;46.23;100017.34;4999770;28;20064;-70
2022/06/25 05:30:50;;;;;;;19.63;5.78;;;;;;;22.83;46.22;100025.00;4983931;28;20066;-72
2022/06/25 05:33:17;;;;;;;12.73;5.67;;;;;;;22.89;46.04;100018.00;4999952;28;20101;-68
2022/06/25 05:35:43;;;;;;;13.63;4.93;;;;;;;22.95;45.77;100016.59;4980610;28;20053;-67
2022/06/25 05:38:10;;;;;;;18.27;5.82;;;;;;;23.02;45.44;100020.75;4982185;28;20046;-68
2022/06/25 05:40:38;;;;;;;13.00;5.45;;;;;;;23.05;45.32;100020.06;4984283;28;20192;-71
2022/06/25 05:43:04;;;;;;;17.20;6.45;;;;;;;23.06;44.97;100028.03;5003946;28;20510;-70
2022/06/25 05:45:31;;;;;;;16.80;6.03;;;;;;;23.09;45.16;100021.75;5000254;28;20197;-71
2022/06/25 05:47:57;;;;;;;16.73;6.20;;;;;;;23.16;45.16;100025.94;4994733;28;20046;-70
2022/06/25 05:50:25;;;;;;;16.52;6.05;;;;;;;23.21;45.06;100029.28;4965797;28;20484;-69
2022/06/25 05:52:53;;;;;;;14.93;6.47;;;;;;;23.25;44.34;100025.78;4980298;28;20506;-70
2022/06/25 05:55:19;;;;;;;29.65;7.15;;;;;;;23.25;44.49;100026.56;4991073;28;20050;-71
2022/06/25 05:57:46;;;;;;;22.55;7.13;;;;;;;23.33;43.98;100022.03;4983268;28;20120;-70
2022/06/25 06:00:13;;;;;;;15.30;6.10;;;;;;;23.38;44.34;100030.16;4982324;28;20042;-71
2022/06/25 06:02:39;;;;;;;;;;;;;;;23.41;44.43;100026.66;5001650;28;20088;-70
2022/06/25 06:05:08;;;;;;;18.50;6.63;;;;;;;23.48;44.12;100037.97;4999866;28;20399;-72
2022/06/25 06:07:37;;;;;;;32.30;7.50;;;;;;;23.55;43.97;100029.00;4997735;28;20054;-69
2022/06/25 06:10:05;;;;;;;18.65;6.75;;;;;;;23.60;43.45;100028.75;4975231;28;20042;-71
2022/06/25 06:12:31;;;;;;;52.33;9.07;;;;;;;23.64;43.91;100028.81;4983278;28;20061;-68
2022/06/25 06:14:57;;;;;;;48.75;8.77;;;;;;;23.65;43.71;100031.28;4984565;28;20157;-69
2022/06/25 06:17:23;;;;;;;27.90;7.30;;;;;;;23.66;43.25;100034.88;4978083;28;20105;-69
2022/06/25 06:19:49;;;;;;;28.50;7.03;;;;;;;23.68;43.33;100031.72;4998199;28;20050;-69
2022/06/25 06:22:15;;;;;;;21.23;7.90;;;;;;;23.70;42.83;100023.78;4984733;28;20475;-69
2022/06/25 06:24:42;;;;;;;20.27;6.50;;;;;;;23.72;42.50;100027.03;4984004;28;20050;-68
2022/06/25 06:27:09;;;;;;;33.38;7.68;;;;;;;23.81;42.07;100029.69;4983372;28;20073;-69
2022/06/25 06:29:35;;;;;;;53.65;9.18;;;;;;;23.95;41.96;100032.81;4983710;28;20062;-68
2022/06/25 06:32:01;;;;;;;35.33;7.25;;;;;;;24.04;41.75;100032.66;4982120;28;20129;-69
2022/06/25 06:34:27;;;;;;;15.07;6.35;;;;;;;24.24;41.34;100015.97;4982769;28;20050;-68
2022/06/25 06:36:53;;;;;;;19.60;6.40;;;;;;;24.39;40.89;100023.53;4981429;28;20096;-69
2022/06/25 06:39:19;;;;;;;14.67;5.63;;;;;;;24.52;40.55;100023.41;4998723;28;20119;-72
2022/06/25 06:41:48;;;;;;;16.42;5.63;;;;;;;24.66;39.82;100031.28;4980213;28;20817;-72
2022/06/25 06:44:14;;;;;;;19.50;7.55;;;;;;;24.64;39.93;100010.09;4978972;28;20132;-73
2022/06/25 06:46:40;;;;;;;15.25;6.18;;;;;;;24.81;39.65;100021.25;4981436;28;20052;-72
2022/06/25 06:49:06;;;;;;;13.70;5.40;;;;;;;24.84;39.31;100023.34;4965759;28;20620;-70
2022/06/25 06:51:33;;;;;;;20.63;5.50;;;;;;;24.90;39.04;100028.28;4984331;28;20046;-71
2022/06/25 06:53:59;;;;;;;18.38;5.97;;;;;;;24.95;39.12;100029.16;4980737;28;20105;-71
2022/06/25 06:56:25;;;;;;;13.68;5.40;;;;;;;25.03;39.16;100028.91;4983601;28;20525;-71
2022/06/25 06:58:53;;;;;;;16.45;5.65;;;;;;;25.23;38.76;100026.09;4981276;28;20051;-69
2022/06/25 07:01:20;;;;;;;11.30;5.55;;;;;;;25.46;38.30;100034.53;4984419;28;20045;-69
2022/06/25 07:03:46;;;;;;;14.95;5.28;;;;;;;25.61;38.06;100030.06;5003299;28;20060;-68
2022/06/25 07:06:12;;;;;;;14.83;5.80;;;;;;;25.74;37.96;100027.88;4997258;28;20100;-68
2022/06/25 07:08:38;;;;;;;19.92;6.18;;;;;;;25.83;38.11;100033.22;5002360;28;20053;-70
2022/06/25 07:11:28;;;;;;;13.82;5.28;;;;;;;26.00;37.58;100029.13;5000682;28;20058;-67
2022/06/25 07:13:55;;;;;;;16.17;4.90;;;;;;;25.99;37.08;100030.31;5001757;28;20127;-73
2022/06/25 07:16:22;;;;;;;16.17;5.57;;;;;;;26.00;37.27;100034.72;5000234;28;20115;-71
2022/06/25 07:18:48;;;;;;;13.57;5.25;;;;;;;26.13;37.33;100026.91;4984559;28;20340;-71
2022/06/25 07:21:14;;;;;;;20.08;6.00;;;;;;;26.35;36.93;100023.69;4994059;28;20146;-72
2022/06/25 07:23:41;;;;;;;17.88;5.50;;;;;;;26.44;36.71;100024.19;4994621;28;20104;-71
2022/06/25 07:26:07;;;;;;;15.95;4.72;;;;;;;26.52;36.39;100025.09;4996142;28;20116;-71
2022/06/25 07:28:33;;;;;;;16.42;4.85;;;;;;;26.27;36.34;100026.34;4993431;28;20426;-71
2022/06/25 07:31:01;;;;;;;58.60;7.60;;;;;;;26.39;36.34;100016.94;5018644;28;20132;-71
2022/06/25 07:33:29;;;;;;;22.48;5.47;;;;;;;26.57;35.96;100024.78;4997140;28;20128;-72
2022/06/25 07:35:55;;;;;;;16.83;5.30;;;;;;;26.79;35.74;100025.91;4983508;28;20108;-71
2022/06/25 07:38:21;;;;;;;13.83;5.17;;;;;;;27.01;35.24;100012.97;5000169;28;20041;-72
2022/06/25 07:40:48;;;;;;;11.00;5.57;;;;;;;27.18;35.11;100017.16;4996590;28;20050;-72
2022/06/25 07:43:14;;;;;;;21.77;5.28;;;;;;;27.12;34.88;100015.91;4984717;28;20076;-69
2022/06/25 07:45:41;;;;;;;11.88;5.13;;;;;;;27.12;35.03;100018.72;4986019;28;20052;-70
2022/06/25 07:48:08;;;;;;;11.70;4.57;;;;;;;27.23;34.86;100016.03;4963199;28;20054;-71
2022/06/25 07:53:30;;;;;;;21.20;5.97;;;;;;;27.58;34.26;100008.41;4998523;28;20052;-71
2022/06/25 07:55:56;;;;;;;19.05;5.07;;;;;;;27.69;33.32;100014.91;4994382;28;20352;-69
2022/06/25 07:58:26;;;;;;;22.50;5.27;;;;;;;27.74;33.17;100019.34;5000056;28;20089;-67
2022/06/25 08:00:52;;;;;;;13.40;4.80;;;;;;;27.86;33.43;100010.66;5003233;28;20041;-69
2022/06/25 08:03:20;;;;;;;16.20;5.63;;;;;;;28.17;32.38;100013.31;5002064;28;20153;-68
2022/06/25 08:05:46;;;;;;;13.60;5.00;;;;;;;28.31;32.59;100013.41;4995916;28;20307;-69
2022/06/25 08:08:12;;;;;;;15.00;5.27;;;;;;;28.52;32.24;100011.94;4983266;28;20054;-69
2022/06/25 08:10:38;;;;;;;18.70;5.15;;;;;;;28.81;31.83;100011.28;4983323;28;20301;-70
2022/06/25 08:13:05;;;;;;;18.63;5.43;;;;;;;28.97;31.73;100008.16;4980603;28;20899;-72
2022/06/25 08:15:31;;;;;;;11.35;4.90;;;;;;;29.01;31.50;100011.78;4991251;28;20525;-71
2022/06/25 08:17:57;;;;;;;15.10;5.03;;;;;;;29.20;30.84;99999.38;4997424;28;20128;-72
2022/06/25 08:20:24;;;;;;;14.32;4.78;;;;;;;29.36;30.95;100009.47;4994348;28;20438;-69
2022/06/25 08:22:50;;;;;;;16.35;5.15;;;;;;;29.65;30.31;100003.88;4998781;28;20050;-69
2022/06/25 08:25:17;;;;;;;15.07;4.73;;;;;;;30.08;29.73;100009.56;4994753;28;20053;-69
2022/06/25 08:27:49;;;;;;;16.75;5.18;;;;;;;30.09;29.70;100002.69;5003335;28;20659;-68
2022/06/25 08:30:15;;;;;;;20.17;5.38;;;;;;;30.09;30.12;99999.88;5005108;28;20477;-71
2022/06/25 08:32:41;;;;;;;16.77;5.68;;;;;;;30.04;30.66;99991.84;4989893;28;20407;-69
2022/06/25 08:35:08;;;;;;;12.37;5.00;;;;;;;30.25;30.26;99999.47;4993203;28;20433;-71
2022/06/25 08:37:38;;;;;;;12.50;5.43;;;;;;;30.38;29.83;99990.59;4985531;28;20450;-69
2022/06/25 08:40:05;;;;;;;13.52;5.22;;;;;;;30.50;29.75;99989.34;4994525;28;20061;-67
2022/06/25 08:42:31;;;;;;;13.32;5.85;;;;;;;30.48;29.39;99994.59;5004079;28;20199;-68
2022/06/25 08:44:57;;;;;;;19.00;5.43;;;;;;;30.61;29.32;99995.75;5004579;28;20066;-69
2022/06/25 08:47:23;;;;;;;14.80;5.33;;;;;;;30.64;28.98;100000.59;5001997;28;20103;-68
2022/06/25 08:49:51;;;;;;;19.13;5.60;;;;;;;30.02;29.88;99993.41;5004696;28;20057;-69
2022/06/25 08:52:18;;;;;;;18.40;5.57;;;;;;;30.31;29.84;100002.69;5003947;28;20408;-70
2022/06/25 08:54:46;;;;;;;;;;;;;;;31.04;28.52;99991.16;4988074;28;20105;-70
2022/06/25 08:57:12;;;;;;;13.95;5.45;;;;;;;31.79;27.71;99986.28;5004981;28;19925;-72
2022/06/25 08:59:39;;;;;;;17.80;5.80;;;;;;;31.87;27.28;99984.19;5002262;28;20049;-71
2022/06/25 09:02:05;;;;;;;18.65;5.75;;;;;;;31.68;28.07;99984.31;4998322;28;20120;-68
2022/06/25 09:04:31;;;;;;;16.92;5.47;;;;;;;31.82;28.07;99986.22;4986507;28;20053;-69
2022/06/25 09:07:10;;;;;;;17.38;5.07;;;;;;;32.37;26.60;99991.38;4985699;28;20054;-68
2022/06/25 09:09:36;;;;;;;12.57;5.30;;;;;;;32.54;26.83;99979.06;4984676;28;20081;-69
2022/06/25 09:12:08;;;;;;;16.70;5.25;;;;;;;32.08;27.57;99977.50;4986145;28;20112;-71
2022/06/25 09:14:36;;;;;;;19.80;7.15;;;;;;;31.19;28.17;99989.06;4986647;28;20054;-72
2022/06/25 09:17:05;;;;;;;18.27;6.07;;;;;;;30.38;29.48;99993.41;4985992;28;20499;-72
2022/06/25 09:19:33;;;;;;;16.92;5.03;;;;;;;30.17;30.08;99980.94;4984805;28;20590;-71
2022/06/25 09:22:02;;;;;;;14.35;5.45;;;;;;;30.37;29.68;99975.66;4984006;28;20038;-68
2022/06/25 09:24:43;;;;;;;21.55;6.22;;;;;;;31.05;29.02;99985.09;4989288;28;20052;-72
2022/06/25 09:27:10;;;;;;;15.52;5.40;;;;;;;31.86;27.68;99940.97;5003673;28;20056;-76
2022/06/25 09:29:39;;;;;;;14.63;5.25;;;;;;;32.87;26.21;99981.50;4986451;28;20149;-77
2022/06/25 09:32:06;;;;;;;13.77;5.55;;;;;;;33.70;25.25;99990.06;5002953;28;20145;-77
2022/06/25 09:34:34;;;;;;;14.73;4.75;;;;;;;34.07;24.57;99982.53;5006343;28;20406;-70
2022/06/25 09:37:16;;;;;;;13.10;5.30;;;;;;;34.48;23.92;99984.19;4999396;28;20057;-70
2022/06/25 09:39:42;;;;;;;18.48;5.53;;;;;;;34.35;23.78;99983.25;4987947;28;20053;-69
2022/06/25 09:42:19;;;;;;;13.75;4.57;;;;;;;34.53;23.52;99982.94;5002806;28;20045;-69
2022/06/25 09:44:46;;;;;;;18.25;5.38;;;;;;;34.97;23.42;99977.13;5005145;28;20096;-69
2022/06/25 09:47:13;;;;;;;27.70;6.80;;;;;;;35.18;22.95;99977.91;4991364;28;20046;-68
2022/06/25 09:49:40;;;;;;;22.35;7.85;;;;;;;35.28;22.76;99959.81;4989282;28;20407;-69
2022/06/25 09:52:06;;;;;;;;;;;;;;;35.44;22.60;99983.78;4985569;28;20109;-69
2022/06/25 09:54:33;;;;;;;19.92;5.00;;;;;;;35.79;21.88;99991.91;4994142;28;19925;-69
2022/06/25 09:57:00;;;;;;;12.32;4.95;;;;;;;35.74;22.27;99982.66;4991009;28;20052;-69
2022/06/25 09:59:30;;;;;;;11.55;4.90;;;;;;;35.76;22.11;99977.34;4994525;28;20051;-68
2022/06/25 10:01:58;;;;;;;19.05;5.43;;;;;;;35.98;21.91;99979.63;4988406;28;20081;-76
2022/06/25 10:04:28;;;;;;;16.85;5.55;;;;;;;35.86;21.32;99974.66;5017841;28;20589;-75
2022/06/25 10:06:56;;;;;;;14.70;4.47;;;;;;;35.63;22.46;99971.56;5003504;28;20049;-76
2022/06/25 10:09:27;;;;;;;12.75;5.68;;;;;;;35.71;21.97;99966.50;5003724;28;20054;-76
2022/06/25 10:11:54;;;;;;;24.17;5.07;;;;;;;35.98;22.04;99962.56;5003377;28;20120;-76
2022/06/25 10:14:21;;;;;;;20.33;5.75;;;;;;;36.12;21.76;99969.94;4985401;28;20104;-77
2022/06/25 10:16:51;;;;;;;15.88;5.07;;;;;;;36.42;21.89;99967.88;5003582;28;20057;-76
2022/06/25 10:19:18;;;;;;;15.60;4.90;;;;;;;36.86;21.12;99956.06;5006944;28;20146;-76
2022/06/25 10:21:44;;;;;;;11.07;4.43;;;;;;;37.32;20.40;99964.41;4656302;28;10000255;-76
2022/06/25 10:24:11;;;;;;;13.02;4.38;;;;;;;37.80;19.97;99971.44;5001251;28;20042;-75
2022/06/25 10:26:38;;;;;;;17.27;5.32;;;;;;;38.19;19.46;99974.97;4997092;28;20056;-77
2022/06/25 10:29:23;;;;;;;22.80;5.40;;;;;;;38.15;19.19;99977.94;4998397;28;20057;-75
2022/06/25 10:32:11;;;;;;;18.00;4.90;;;;;;;37.94;19.72;99988.06;5004636;28;20053;-76
2022/06/25 10:34:37;;;;;;;20.33;5.20;;;;;;;38.55;18.94;99973.66;5002310;28;20458;-76
2022/06/25 10:37:03;;;;;;;;;;;;;;;39.08;18.17;99977.00;5001622;28;20144;-75
2022/06/25 10:39:36;;;;;;;11.20;4.32;;;;;;;39.28;17.75;99960.25;5002212;28;19956;-75
2022/06/25 10:45:49;;;;;;;28.30;5.32;;;;;;;38.77;18.35;99958.59;4999670;28;20141;-75
2022/06/25 10:48:18;;;;;;;18.23;4.43;;;;;;;38.77;17.75;99958.59;4985343;28;20141;-76
2022/06/25 10:50:48;;;;;;;16.02;4.90;;;;;;;39.05;18.18;99961.59;4982367;28;20050;-76
2022/06/25 10:53:33;;;;;;;13.82;4.55;;;;;;;39.79;17.02;99969.59;4992655;28;20544;-76
2022/06/25 10:56:01;;;;;;;9.13;4.30;;;;;;;39.92;16.77;99960.13;4981589;28;20260;-75
2022/06/25 10:58:41;;;;;;;11.48;4.75;;;;;;;40.34;16.59;99956.63;4996744;28;20112;-75
2022/06/25 11:01:20;;;;;;;72.05;25.45;;;;;;;40.91;15.40;99958.09;4974040;28;20051;-69
2022/06/25 11:03:54;;;;;;;20.48;8.50;;;;;;;40.48;16.09;99952.31;5002440;28;20041;-75
2022/06/25 11:06:22;;;;;;;27.70;8.70;;;;;;;40.35;16.73;99952.47;5006161;28;20046;-67
2022/06/25 11:08:50;;;;;;;16.40;5.85;;;;;;;40.19;16.74;99944.19;5003201;28;20145;-68
2022/06/25 11:11:26;;;;;;;16.10;7.03;;;;;;;40.01;17.08;99942.94;5000254;28;20046;-68
2022/06/25 11:13:52;;;;;;;17.83;5.03;;;;;;;39.54;17.59;99950.66;4996688;28;20140;-68
2022/06/25 11:16:19;;;;;;;12.38;5.25;;;;;;;38.22;18.99;99954.06;5000100;28;20061;-66
2022/06/25 11:18:47;;;;;;;12.05;5.50;;;;;;;38.41;18.81;99952.16;4998999;28;20065;-70
2022/06/25 11:21:25;;;;;;;9.48;4.72;;;;;;;39.36;17.73;99937.91;4982318;28;20543;-68
2022/06/25 11:23:52;;;;;;;13.10;4.90;;;;;;;40.41;17.21;99955.50;5001556;28;20077;-75
2022/06/25 11:29:03;;;;;;;15.73;5.20;;;;;;;40.22;17.22;99944.03;4997225;28;20433;-77
2022/06/25 11:31:33;;;;;;;19.15;8.02;;;;;;;40.77;16.80;99945.28;4999319;28;20050;-75
2022/06/25 11:34:02;;;;;;;77.28;14.75;;;;;;;41.20;16.16;99951.00;4997359;28;20078;-75
2022/06/25 11:36:32;;;;;;;50.00;19.42;;;;;;;41.19;16.22;99951.47;4999980;28;20517;-76
2022/06/25 11:38:59;;;;;;;30.30;11.18;;;;;;;40.92;15.87;99967.50;4999584;28;20046;-76
2022/06/25 11:41:30;;;;;;;39.65;14.65;;;;;;;40.82;15.99;99961.78;5000067;28;20548;-76
2022/06/25 11:44:04;;;;;;;21.25;10.07;;;;;;;41.37;15.47;99957.13;4989701;28;20053;-75
2022/06/25 11:46:33;;;;;;;24.10;9.13;;;;;;;41.93;15.45;99955.97;4976159;28;20481;-68